createdAt,value
2023-01-20T00:00:56.719Z,-0.985718
2023-01-20T00:02:05.395Z,-0.965576
2023-01-20T00:03:15.100Z,-0.965576
2023-01-20T00:04:23.797Z,-1.005859
2023-01-20T00:05:33.509Z,-1.005859
2023-01-20T00:06:42.216Z,-1.005859
2023-01-20T00:07:51.920Z,-1.005859
2023-01-20T00:09:01.656Z,-1.005859
2023-01-20T00:10:09.339Z,-0.985718
2023-01-20T00:11:17.008Z,-1.005859
2023-01-20T00:12:25.741Z,-0.985718
2023-01-20T00:13:34.478Z,-0.965576
2023-01-20T00:14:44.158Z,-0.955505
2023-01-20T00:15:52.869Z,-0.935364
2023-01-20T00:17:01.577Z,-0.935364
2023-01-20T00:18:11.298Z,-0.935364
2023-01-20T00:19:19.990Z,-0.895081
2023-01-20T00:20:28.692Z,-0.88501
2023-01-20T00:21:37.378Z,-0.854797
2023-01-20T00:22:47.084Z,-0.854797
2023-01-20T00:23:56.788Z,-0.834656
2023-01-20T00:25:05.466Z,-0.834656
2023-01-20T00:26:15.160Z,-0.834656
2023-01-20T00:27:24.917Z,-0.824585
2023-01-20T00:28:33.620Z,-0.854797
2023-01-20T00:29:43.376Z,-0.834656
2023-01-20T00:30:53.084Z,-0.834656
2023-01-20T00:32:01.730Z,-0.824585
2023-01-20T00:33:11.417Z,-0.834656
2023-01-20T00:34:20.123Z,-0.824585
2023-01-20T00:35:28.831Z,-0.834656
2023-01-20T00:36:38.520Z,-0.824585
2023-01-20T00:37:47.216Z,-0.834656
2023-01-20T00:38:56.904Z,-0.854797
2023-01-20T00:40:05.584Z,-0.854797
2023-01-20T00:41:14.333Z,-0.854797
2023-01-20T00:42:24.001Z,-0.834656
2023-01-20T00:43:31.669Z,-0.864868
2023-01-20T00:44:41.370Z,-0.854797
2023-01-20T00:45:50.168Z,-0.88501
2023-01-20T00:46:58.771Z,-0.88501
2023-01-20T00:48:08.464Z,-0.925293
2023-01-20T00:49:16.151Z,-0.925293
2023-01-20T00:50:24.891Z,-0.925293
2023-01-20T00:51:34.631Z,-0.935364
2023-01-20T00:52:42.409Z,-0.935364
2023-01-20T00:53:52.150Z,-0.935364
2023-01-20T00:55:00.847Z,-0.955505
2023-01-20T00:56:08.522Z,-0.925293
2023-01-20T00:57:18.211Z,-0.925293
2023-01-20T00:58:26.908Z,-0.925293
2023-01-20T00:59:36.589Z,-0.925293
2023-01-20T01:00:45.301Z,-0.925293
2023-01-20T01:01:56.073Z,-0.925293
2023-01-20T01:03:05.682Z,-0.955505
2023-01-20T01:04:15.396Z,-0.955505
2023-01-20T01:05:23.118Z,-0.935364
2023-01-20T01:06:32.849Z,-0.925293
2023-01-20T01:07:40.564Z,-0.925293
2023-01-20T01:08:49.247Z,-0.905151
2023-01-20T01:09:59.009Z,-0.895081
2023-01-20T01:11:07.770Z,-0.895081
2023-01-20T01:12:17.430Z,-0.895081
2023-01-20T01:13:26.138Z,-0.895081
2023-01-20T01:14:34.872Z,-0.895081
2023-01-20T01:15:44.618Z,-0.864868
2023-01-20T01:16:53.492Z,-0.854797
2023-01-20T01:18:02.143Z,-0.834656
2023-01-20T01:19:11.882Z,-0.864868
2023-01-20T01:20:20.603Z,-0.824585
2023-01-20T01:21:29.357Z,-0.834656
2023-01-20T01:22:38.114Z,-0.834656
2023-01-20T01:23:45.855Z,-0.88501
2023-01-20T01:24:55.560Z,-0.88501
2023-01-20T01:26:03.248Z,-0.895081
2023-01-20T01:27:12.964Z,-0.905151
2023-01-20T01:28:22.692Z,-0.935364
2023-01-20T01:29:31.414Z,-0.935364
2023-01-20T01:30:42.176Z,-0.955505
2023-01-20T01:31:50.797Z,-0.955505
2023-01-20T01:32:59.551Z,-0.935364
2023-01-20T01:34:09.266Z,-0.935364
2023-01-20T01:35:17.954Z,-0.925293
2023-01-20T01:36:27.710Z,-0.935364
2023-01-20T01:37:37.454Z,-0.935364
2023-01-20T01:38:45.150Z,-0.985718
2023-01-20T01:39:54.842Z,-0.985718
2023-01-20T01:41:03.528Z,-0.985718
2023-01-20T01:42:11.209Z,-0.985718
2023-01-20T01:43:20.981Z,-1.005859
2023-01-20T01:44:28.748Z,-1.036072
2023-01-20T01:45:37.525Z,-1.036072
2023-01-20T01:46:47.213Z,-1.036072
2023-01-20T01:47:55.917Z,-1.036072
2023-01-20T01:49:05.658Z,-1.066284
2023-01-20T01:50:14.421Z,-1.066284
2023-01-20T01:51:23.091Z,-1.066284
2023-01-20T01:52:32.811Z,-1.076355
2023-01-20T01:53:40.534Z,-1.086426
2023-01-20T01:54:50.228Z,-1.106567
2023-01-20T01:55:59.004Z,-1.076355
2023-01-20T01:57:06.696Z,-1.066284
2023-01-20T01:58:16.413Z,-1.076355
2023-01-20T01:59:25.108Z,-1.076355
2023-01-20T02:00:33.885Z,-1.086426
2023-01-20T02:01:43.643Z,-1.116638
2023-01-20T02:02:52.278Z,-1.166992
2023-01-20T02:04:00.967Z,-1.217346
2023-01-20T02:05:10.667Z,-1.257629
2023-01-20T02:06:19.431Z,-1.287842
2023-01-20T02:07:29.133Z,-1.328125
2023-01-20T02:08:37.804Z,-1.348267
2023-01-20T02:09:45.495Z,-1.398621
2023-01-20T02:10:55.231Z,-1.408691
2023-01-20T02:12:02.942Z,-1.438904
2023-01-20T02:13:11.663Z,-1.469116
2023-01-20T02:14:21.346Z,-1.499329
2023-01-20T02:15:30.052Z,-1.459045
2023-01-20T02:16:39.793Z,-1.408691
2023-01-20T02:17:48.469Z,-1.398621
2023-01-20T02:18:56.255Z,-1.328125
2023-01-20T02:20:05.994Z,-1.2677
2023-01-20T02:21:13.663Z,-1.287842
2023-01-20T02:22:22.368Z,-1.2677
2023-01-20T02:23:32.048Z,-1.2677
2023-01-20T02:24:39.755Z,-1.217346
2023-01-20T02:25:49.459Z,-1.187134
2023-01-20T02:26:58.166Z,-1.187134
2023-01-20T02:28:05.856Z,-1.13678
2023-01-20T02:29:15.591Z,-1.166992
2023-01-20T02:30:23.350Z,-1.13678
2023-01-20T02:31:32.026Z,-1.146851
2023-01-20T02:32:41.692Z,-1.146851
2023-01-20T02:33:48.427Z,-1.146851
2023-01-20T02:34:57.126Z,-1.197205
2023-01-20T02:36:05.847Z,-1.217346
2023-01-20T02:37:15.578Z,-1.166992
2023-01-20T02:38:24.279Z,-1.146851
2023-01-20T02:39:32.988Z,-1.166992
2023-01-20T02:40:42.741Z,-1.13678
2023-01-20T02:41:50.466Z,-1.086426
2023-01-20T02:42:59.166Z,-1.076355
2023-01-20T02:44:08.864Z,-1.076355
2023-01-20T02:45:16.872Z,-1.01593
2023-01-20T02:46:26.241Z,-1.005859
2023-01-20T02:47:33.959Z,-1.005859
2023-01-20T02:48:41.665Z,-0.965576
2023-01-20T02:49:51.401Z,-0.935364
2023-01-20T02:50:59.104Z,-0.935364
2023-01-20T02:52:07.775Z,-0.955505
2023-01-20T02:53:17.525Z,-0.935364
2023-01-20T02:54:26.259Z,-0.925293
2023-01-20T02:55:35.919Z,-0.935364
2023-01-20T02:56:44.656Z,-0.925293
2023-01-20T02:57:52.355Z,-0.905151
2023-01-20T02:59:02.106Z,-0.895081
2023-01-20T03:00:09.818Z,-0.895081
2023-01-20T03:01:18.627Z,-0.88501
2023-01-20T03:02:28.238Z,-0.88501
2023-01-20T03:03:37.955Z,-0.864868
2023-01-20T03:04:46.653Z,-0.88501
2023-01-20T03:05:55.441Z,-0.854797
2023-01-20T03:07:03.054Z,-0.864868
2023-01-20T03:08:12.785Z,-0.895081
2023-01-20T03:09:21.463Z,-0.864868
2023-01-20T03:10:31.221Z,-0.88501
2023-01-20T03:11:40.906Z,-0.895081
2023-01-20T03:12:48.590Z,-0.88501
2023-01-20T03:13:58.311Z,-0.864868
2023-01-20T03:15:07.030Z,-0.864868
2023-01-20T03:16:15.765Z,-0.854797
2023-01-20T03:17:25.469Z,-0.834656
2023-01-20T03:18:34.169Z,-0.824585
2023-01-20T03:19:42.914Z,-0.824585
2023-01-20T03:20:52.651Z,-0.824585
2023-01-20T03:22:00.351Z,-0.804443
2023-01-20T03:23:10.061Z,-0.804443
2023-01-20T03:24:18.781Z,-0.804443
2023-01-20T03:25:27.474Z,-0.804443
2023-01-20T03:26:37.191Z,-0.804443
2023-01-20T03:27:46.882Z,-0.784302
2023-01-20T03:28:56.596Z,-0.784302
2023-01-20T03:30:06.305Z,-0.784302
2023-01-20T03:31:14.143Z,-0.774231
2023-01-20T03:32:23.693Z,-0.754089
2023-01-20T03:33:32.412Z,-0.744019
2023-01-20T03:34:41.093Z,-0.744019
2023-01-20T03:35:50.801Z,-0.754089
2023-01-20T03:36:57.467Z,-0.754089
2023-01-20T03:38:06.176Z,-0.754089
2023-01-20T03:39:15.873Z,-0.774231
2023-01-20T03:40:24.566Z,-0.784302
2023-01-20T03:41:34.245Z,-0.804443
2023-01-20T03:42:42.985Z,-0.784302
2023-01-20T03:43:51.650Z,-0.824585
2023-01-20T03:45:01.350Z,-0.804443
2023-01-20T03:46:10.050Z,-0.784302
2023-01-20T03:47:19.709Z,-0.784302
2023-01-20T03:48:29.401Z,-0.774231
2023-01-20T03:49:39.083Z,-0.784302
2023-01-20T03:50:48.785Z,-0.784302
2023-01-20T03:51:57.466Z,-0.784302
2023-01-20T03:53:05.143Z,-0.784302
2023-01-20T03:54:14.838Z,-0.784302
2023-01-20T03:55:22.547Z,-0.784302
2023-01-20T03:56:31.230Z,-0.824585
2023-01-20T03:57:40.897Z,-0.784302
2023-01-20T03:58:49.601Z,-0.804443
2023-01-20T03:59:59.267Z,-0.804443
2023-01-20T04:01:08.944Z,-0.824585
2023-01-20T04:02:18.741Z,-0.834656
2023-01-20T04:03:28.454Z,-0.834656
2023-01-20T04:04:36.078Z,-0.834656
2023-01-20T04:05:44.739Z,-0.834656
2023-01-20T04:06:54.443Z,-0.834656
2023-01-20T04:08:04.335Z,-0.854797
2023-01-20T04:09:14.154Z,-0.854797
2023-01-20T04:10:23.086Z,-0.834656
2023-01-20T04:11:32.870Z,-0.824585
2023-01-20T04:12:42.541Z,-0.804443
2023-01-20T04:13:51.223Z,-0.804443
2023-01-20T04:14:59.928Z,-0.784302
2023-01-20T04:16:09.769Z,-0.784302
2023-01-20T04:17:18.358Z,-0.774231
2023-01-20T04:18:28.053Z,-0.754089
2023-01-20T04:19:37.769Z,-0.774231
2023-01-20T04:20:45.468Z,-0.754089
2023-01-20T04:21:55.203Z,-0.754089
2023-01-20T04:23:04.128Z,-0.754089
2023-01-20T04:24:12.827Z,-0.754089
2023-01-20T04:25:22.652Z,-0.774231
2023-01-20T04:26:30.307Z,-0.744019
2023-01-20T04:27:39.991Z,-0.754089
2023-01-20T04:28:48.701Z,-0.784302
2023-01-20T04:29:56.405Z,-0.824585
2023-01-20T04:31:06.227Z,-0.834656
2023-01-20T04:32:16.804Z,-0.854797
2023-01-20T04:33:26.503Z,-0.854797
2023-01-20T04:34:35.178Z,-0.854797
2023-01-20T04:35:43.881Z,-0.834656
2023-01-20T04:36:53.564Z,-0.854797
2023-01-20T04:38:01.254Z,-0.854797
2023-01-20T04:39:10.950Z,-0.88501
2023-01-20T04:40:20.632Z,-0.895081
2023-01-20T04:41:29.318Z,-0.905151
2023-01-20T04:42:38.021Z,-0.88501
2023-01-20T04:43:45.770Z,-0.905151
2023-01-20T04:44:54.463Z,-0.895081
2023-01-20T04:46:04.224Z,-0.895081
2023-01-20T04:47:12.891Z,-0.88501
2023-01-20T04:48:22.583Z,-0.895081
2023-01-20T04:49:31.274Z,-0.88501
2023-01-20T04:50:39.025Z,-0.895081
2023-01-20T04:51:48.735Z,-0.895081
2023-01-20T04:52:58.924Z,-0.895081
2023-01-20T04:54:06.117Z,-0.88501
2023-01-20T04:55:16.183Z,-0.88501
2023-01-20T04:56:24.513Z,-0.88501
2023-01-20T04:57:34.201Z,-0.895081
2023-01-20T04:58:43.895Z,-0.854797
2023-01-20T04:59:53.639Z,-0.88501
2023-01-20T05:01:03.389Z,-0.854797
2023-01-20T05:02:18.268Z,-0.854797
2023-01-20T05:03:27.805Z,-0.864868
2023-01-20T05:04:36.485Z,-0.88501
2023-01-20T05:05:45.209Z,-0.88501
2023-01-20T05:06:53.899Z,-0.895081
2023-01-20T05:08:03.601Z,-0.905151
2023-01-20T05:09:11.274Z,-0.905151
2023-01-20T05:10:20.945Z,-0.925293
2023-01-20T05:11:30.824Z,-0.935364
2023-01-20T05:12:39.535Z,-0.925293
2023-01-20T05:13:49.377Z,-0.935364
2023-01-20T05:14:59.085Z,-0.925293
2023-01-20T05:16:08.902Z,-0.925293
2023-01-20T05:17:18.662Z,-0.935364
2023-01-20T05:18:26.403Z,-0.925293
2023-01-20T05:19:36.046Z,-0.925293
2023-01-20T05:20:45.743Z,-0.955505
2023-01-20T05:21:53.404Z,-0.935364
2023-01-20T05:23:03.156Z,-0.955505
2023-01-20T05:24:12.851Z,-1.005859
2023-01-20T05:25:21.566Z,-1.005859
2023-01-20T05:26:31.303Z,-1.005859
2023-01-20T05:27:40.091Z,-1.005859
2023-01-20T05:28:49.009Z,-1.01593
2023-01-20T05:29:58.824Z,-1.01593
2023-01-20T05:31:08.798Z,-1.005859
2023-01-20T05:32:18.435Z,-1.036072
2023-01-20T05:33:27.112Z,-1.01593
2023-01-20T05:34:35.832Z,-0.965576
2023-01-20T05:35:45.506Z,-0.965576
2023-01-20T05:36:55.147Z,-0.965576
2023-01-20T05:38:03.810Z,-0.965576
2023-01-20T05:39:13.521Z,-1.005859
2023-01-20T05:40:22.347Z,-0.985718
2023-01-20T05:41:32.021Z,-1.005859
2023-01-20T05:42:41.725Z,-1.005859
2023-01-20T05:43:50.404Z,-1.01593
2023-01-20T05:45:00.130Z,-1.036072
2023-01-20T05:46:08.914Z,-1.036072
2023-01-20T05:47:18.621Z,-1.01593
2023-01-20T05:48:28.326Z,-1.005859
2023-01-20T05:49:37.017Z,-1.005859
2023-01-20T05:50:46.766Z,-1.01593
2023-01-20T05:51:56.504Z,-0.985718
2023-01-20T05:53:04.195Z,-0.985718
2023-01-20T05:54:13.902Z,-1.005859
2023-01-20T05:55:22.616Z,-1.005859
2023-01-20T05:56:32.372Z,-1.01593
2023-01-20T05:57:42.143Z,-0.985718
2023-01-20T05:58:51.897Z,-0.965576
2023-01-20T06:00:01.567Z,-0.965576
2023-01-20T06:01:10.292Z,-0.955505
2023-01-20T06:02:18.940Z,-0.985718
2023-01-20T06:03:28.681Z,-0.955505
2023-01-20T06:04:36.380Z,-0.935364
2023-01-20T06:05:45.222Z,-0.935364
2023-01-20T06:06:55.010Z,-0.955505
2023-01-20T06:08:03.705Z,-0.935364
2023-01-20T06:09:13.419Z,-0.935364
2023-01-20T06:10:22.150Z,-0.935364
2023-01-20T06:11:31.841Z,-0.955505
2023-01-20T06:12:41.542Z,-0.935364
2023-01-20T06:13:49.230Z,-0.925293
2023-01-20T06:14:59.193Z,-0.935364
2023-01-20T06:16:08.937Z,-0.935364
2023-01-20T06:17:17.573Z,-0.955505
2023-01-20T06:18:27.230Z,-0.965576
2023-01-20T06:19:35.920Z,-0.955505
2023-01-20T06:20:44.611Z,-0.955505
2023-01-20T06:21:54.400Z,-0.965576
2023-01-20T06:23:04.121Z,-0.985718
2023-01-20T06:24:13.768Z,-0.955505
2023-01-20T06:25:22.489Z,-0.985718
2023-01-20T06:26:31.165Z,-1.005859
2023-01-20T06:27:40.882Z,-0.965576
2023-01-20T06:28:50.519Z,-1.005859
2023-01-20T06:30:00.183Z,-1.005859
2023-01-20T06:31:09.960Z,-0.985718
2023-01-20T06:32:18.668Z,-1.005859
2023-01-20T06:33:28.325Z,-1.01593
2023-01-20T06:34:35.996Z,-1.005859
2023-01-20T06:35:45.652Z,-1.036072
2023-01-20T06:36:54.318Z,-1.01593
2023-01-20T06:38:01.007Z,-1.046143
2023-01-20T06:39:10.730Z,-1.036072
2023-01-20T06:40:20.377Z,-1.036072
2023-01-20T06:41:28.031Z,-1.036072
2023-01-20T06:42:37.708Z,-1.01593
2023-01-20T06:43:45.476Z,-1.036072
2023-01-20T06:44:54.122Z,-1.046143
2023-01-20T06:46:03.797Z,-1.01593
2023-01-20T06:47:11.452Z,-1.036072
2023-01-20T06:48:20.138Z,-1.005859
2023-01-20T06:49:28.863Z,-1.01593
2023-01-20T06:50:37.533Z,-1.005859
2023-01-20T06:51:47.259Z,-1.005859
2023-01-20T06:52:54.910Z,-0.985718
2023-01-20T06:54:04.614Z,-1.005859
2023-01-20T06:55:14.643Z,-1.005859
2023-01-20T06:56:22.970Z,-0.965576
2023-01-20T06:57:32.720Z,-0.985718
2023-01-20T06:58:42.412Z,-0.965576
2023-01-20T06:59:50.067Z,-0.935364
2023-01-20T07:00:59.983Z,-0.935364
2023-01-20T07:02:07.721Z,-0.925293
2023-01-20T07:03:16.242Z,-0.905151
2023-01-20T07:04:25.994Z,-0.905151
2023-01-20T07:05:33.657Z,-0.905151
2023-01-20T07:06:43.371Z,-0.935364
2023-01-20T07:07:52.033Z,-0.925293
2023-01-20T07:09:00.764Z,-0.935364
2023-01-20T07:10:10.430Z,-0.925293
2023-01-20T07:11:18.158Z,-0.925293
2023-01-20T07:12:27.838Z,-0.925293
2023-01-20T07:13:37.535Z,-0.925293
2023-01-20T07:14:47.205Z,-0.925293
2023-01-20T07:15:56.919Z,-0.905151
2023-01-20T07:17:05.582Z,-0.925293
2023-01-20T07:18:14.294Z,-0.905151
2023-01-20T07:19:24.164Z,-0.905151
2023-01-20T07:20:33.823Z,-0.895081
2023-01-20T07:21:42.499Z,-0.905151
2023-01-20T07:22:52.176Z,-0.895081
2023-01-20T07:24:01.939Z,-0.88501
2023-01-20T07:25:11.623Z,-0.864868
2023-01-20T07:26:21.303Z,-0.864868
2023-01-20T07:27:29.975Z,-0.854797
2023-01-20T07:28:39.768Z,-0.854797
2023-01-20T07:29:48.451Z,-0.834656
2023-01-20T07:30:58.190Z,-0.834656
2023-01-20T07:32:07.827Z,-0.854797
2023-01-20T07:33:16.539Z,-0.854797
2023-01-20T07:34:26.189Z,-0.834656
2023-01-20T07:35:34.871Z,-0.824585
2023-01-20T07:36:44.547Z,-0.804443
2023-01-20T07:37:54.233Z,-0.804443
2023-01-20T07:39:01.906Z,-0.754089
2023-01-20T07:40:11.548Z,-0.774231
2023-01-20T07:41:21.297Z,-0.754089
2023-01-20T07:42:29.018Z,-0.754089
2023-01-20T07:43:38.694Z,-0.774231
2023-01-20T07:44:48.351Z,-0.744019
2023-01-20T07:45:57.084Z,-0.713806
2023-01-20T07:47:06.772Z,-0.683594
2023-01-20T07:48:15.504Z,-0.653381
2023-01-20T07:49:24.246Z,-0.653381
2023-01-20T07:50:32.947Z,-0.623169
2023-01-20T07:51:42.673Z,-0.623169
2023-01-20T07:52:51.369Z,-0.613098
2023-01-20T07:54:01.079Z,-0.592957
2023-01-20T07:55:09.827Z,-0.572815
2023-01-20T07:56:18.513Z,-0.572815
2023-01-20T07:57:27.228Z,-0.572815
2023-01-20T07:58:36.052Z,-0.572815
2023-01-20T07:59:45.720Z,-0.592957
2023-01-20T08:00:55.412Z,-0.562744
2023-01-20T08:02:04.125Z,-0.542603
2023-01-20T08:03:13.737Z,-0.532532
2023-01-20T08:04:22.437Z,-0.532532
2023-01-20T08:05:30.123Z,-0.542603
2023-01-20T08:06:39.802Z,-0.492249
2023-01-20T08:07:47.531Z,-0.492249
2023-01-20T08:08:58.669Z,-0.462036
2023-01-20T08:10:05.934Z,-0.441895
2023-01-20T08:11:14.645Z,-0.462036
2023-01-20T08:12:24.366Z,-0.431824
2023-01-20T08:13:34.186Z,-0.441895
2023-01-20T08:14:42.899Z,-0.462036
2023-01-20T08:15:52.592Z,-0.431824
2023-01-20T08:17:01.323Z,-0.431824
2023-01-20T08:18:11.110Z,-0.411682
2023-01-20T08:19:20.843Z,-0.431824
2023-01-20T08:20:29.516Z,-0.431824
2023-01-20T08:21:39.255Z,-0.431824
2023-01-20T08:22:47.963Z,-0.391541
2023-01-20T08:23:55.636Z,-0.361328
2023-01-20T08:25:05.351Z,-0.341187
2023-01-20T08:26:12.995Z,-0.341187
2023-01-20T08:27:22.700Z,-0.341187
2023-01-20T08:28:33.990Z,-0.391541
2023-01-20T08:29:43.721Z,-0.351257
2023-01-20T08:30:53.636Z,-0.341187
2023-01-20T08:32:02.117Z,-0.38147
2023-01-20T08:33:11.883Z,-0.38147
2023-01-20T08:34:20.614Z,-0.38147
2023-01-20T08:35:28.305Z,-0.38147
2023-01-20T08:36:38.041Z,-0.411682
2023-01-20T08:37:46.771Z,-0.431824
2023-01-20T08:38:55.516Z,-0.38147
2023-01-20T08:40:05.258Z,-0.361328
2023-01-20T08:41:14.939Z,-0.361328
2023-01-20T08:42:24.596Z,-0.321045
2023-01-20T08:43:34.281Z,-0.290833
2023-01-20T08:44:42.966Z,-0.230408
2023-01-20T08:45:52.661Z,-0.230408
2023-01-20T08:47:00.324Z,-0.180054
2023-01-20T08:48:09.941Z,-0.210266
2023-01-20T08:49:19.603Z,-0.26062
2023-01-20T08:50:28.338Z,-0.230408
2023-01-20T08:51:38.076Z,-0.250549
2023-01-20T08:52:46.663Z,-0.26062
2023-01-20T08:53:56.373Z,-0.200195
2023-01-20T08:55:07.025Z,-0.200195
2023-01-20T08:56:15.730Z,-0.169983
2023-01-20T08:57:25.398Z,-0.149841
2023-01-20T08:58:35.057Z,-0.1297
2023-01-20T08:59:42.724Z,-0.1297
2023-01-20T09:00:52.412Z,-0.1297
2023-01-20T09:02:01.073Z,-0.1297
2023-01-20T09:03:08.751Z,-0.1297
2023-01-20T09:04:18.394Z,-0.079346
2023-01-20T09:05:27.066Z,-0.099487
2023-01-20T09:06:35.715Z,-0.099487
2023-01-20T09:07:45.401Z,-0.069275
2023-01-20T09:08:53.043Z,-0.018921
2023-01-20T09:10:02.742Z,0.001221
2023-01-20T09:11:12.425Z,0.041504
2023-01-20T09:12:21.090Z,0.071716
2023-01-20T09:13:30.749Z,0.081787
2023-01-20T09:14:38.414Z,0.051575
2023-01-20T09:15:48.078Z,0.101929
2023-01-20T09:16:57.715Z,0.101929
2023-01-20T09:18:06.387Z,0.162354
2023-01-20T09:19:16.090Z,0.212708
2023-01-20T09:20:25.745Z,0.212708
2023-01-20T09:21:33.397Z,0.192566
2023-01-20T09:22:43.054Z,0.222778
2023-01-20T09:23:51.707Z,0.263062
2023-01-20T09:25:01.380Z,0.293274
2023-01-20T09:26:11.055Z,0.283203
2023-01-20T09:27:21.690Z,0.263062
2023-01-20T09:28:31.341Z,0.293274
2023-01-20T09:29:41.004Z,0.37384
2023-01-20T09:30:49.751Z,0.464478
2023-01-20T09:31:59.454Z,0.545044
2023-01-20T09:33:08.001Z,0.585327
2023-01-20T09:34:16.682Z,0.524902
2023-01-20T09:35:26.434Z,0.545044
2023-01-20T09:36:35.095Z,0.545044
2023-01-20T09:37:45.203Z,0.595398
2023-01-20T09:38:57.441Z,0.595398
2023-01-20T09:40:06.107Z,0.62561
2023-01-20T09:41:15.771Z,0.464478
2023-01-20T09:42:23.437Z,0.393982
2023-01-20T09:43:32.159Z,0.444336
2023-01-20T09:44:42.015Z,0.575256
2023-01-20T09:45:50.715Z,0.675964
2023-01-20T09:47:00.437Z,0.696106
2023-01-20T09:48:11.739Z,0.766602
2023-01-20T09:49:22.713Z,0.756531
2023-01-20T09:50:34.668Z,0.766602
2023-01-20T09:51:46.759Z,0.776672
2023-01-20T09:52:58.035Z,0.696106
2023-01-20T09:54:09.178Z,0.655823
2023-01-20T09:55:20.590Z,0.686035
2023-01-20T09:56:31.297Z,0.696106
2023-01-20T09:57:44.028Z,0.756531
2023-01-20T09:58:55.537Z,0.857239
2023-01-20T10:00:06.220Z,0.806885
2023-01-20T10:01:16.335Z,0.806885
2023-01-20T10:02:24.983Z,0.796814
2023-01-20T10:03:34.635Z,0.87738
2023-01-20T10:04:43.288Z,0.947876
2023-01-20T10:05:53.014Z,1.008301
2023-01-20T10:07:02.625Z,1.058655
2023-01-20T10:08:10.269Z,0.87738
2023-01-20T10:09:20.003Z,0.766602
2023-01-20T10:10:27.665Z,0.796814
2023-01-20T10:11:37.419Z,0.756531
2023-01-20T10:12:47.064Z,0.766602
2023-01-20T10:13:55.755Z,0.776672
2023-01-20T10:15:05.413Z,0.766602
2023-01-20T10:16:14.145Z,0.796814
2023-01-20T10:17:22.738Z,0.776672
2023-01-20T10:18:32.405Z,0.756531
2023-01-20T10:19:40.050Z,0.827026
2023-01-20T10:20:47.692Z,0.837097
2023-01-20T10:21:57.408Z,0.857239
2023-01-20T10:23:06.057Z,0.806885
2023-01-20T10:24:15.710Z,0.806885
2023-01-20T10:25:24.354Z,0.796814
2023-01-20T10:26:34.029Z,0.857239
2023-01-20T10:27:43.691Z,0.837097
2023-01-20T10:28:52.365Z,0.837097
2023-01-20T10:30:02.022Z,0.806885
2023-01-20T10:31:11.401Z,0.756531
2023-01-20T10:32:22.306Z,0.736389
2023-01-20T10:33:31.965Z,0.756531
2023-01-20T10:34:39.671Z,0.776672
2023-01-20T10:35:49.335Z,0.857239
2023-01-20T10:36:58.995Z,0.857239
2023-01-20T10:38:08.735Z,0.827026
2023-01-20T10:39:18.388Z,0.776672
2023-01-20T10:40:27.091Z,0.766602
2023-01-20T10:41:36.716Z,0.736389
2023-01-20T10:42:45.393Z,0.806885
2023-01-20T10:43:54.068Z,0.837097
2023-01-20T10:45:03.759Z,0.837097
2023-01-20T10:46:13.590Z,0.806885
2023-01-20T10:47:22.228Z,0.796814
2023-01-20T10:48:30.952Z,0.837097
2023-01-20T10:49:40.667Z,0.907593
2023-01-20T10:50:49.326Z,0.937805
2023-01-20T10:51:59.187Z,0.917664
2023-01-20T10:53:07.856Z,0.947876
2023-01-20T10:54:17.556Z,0.988159
2023-01-20T10:55:27.261Z,1.058655
2023-01-20T10:56:36.932Z,1.058655
2023-01-20T10:57:46.634Z,1.018372
2023-01-20T10:58:55.282Z,1.008301
2023-01-20T11:00:04.945Z,1.038513
2023-01-20T11:01:14.627Z,1.159363
2023-01-20T11:02:23.330Z,1.239929
2023-01-20T11:03:33.794Z,1.300354
2023-01-20T11:04:44.251Z,1.350708
2023-01-20T11:05:56.549Z,1.451416
2023-01-20T11:07:07.512Z,1.552124
2023-01-20T11:08:18.244Z,1.63269
2023-01-20T11:09:28.788Z,1.672974
2023-01-20T11:10:39.815Z,1.683044
2023-01-20T11:11:53.181Z,1.672974
2023-01-20T11:13:15.217Z,1.733398
2023-01-20T11:14:26.328Z,1.662903
2023-01-20T11:15:38.363Z,1.602478
2023-01-20T11:16:49.292Z,1.62262
2023-01-20T11:17:58.679Z,1.592407
2023-01-20T11:19:09.875Z,1.481628
2023-01-20T11:20:20.865Z,1.491699
2023-01-20T11:21:31.685Z,1.552124
2023-01-20T11:22:41.343Z,1.63269
2023-01-20T11:23:50.023Z,1.713257
2023-01-20T11:24:59.727Z,1.703186
2023-01-20T11:26:09.461Z,1.63269
2023-01-20T11:27:18.134Z,1.63269
2023-01-20T11:28:28.070Z,1.531982
2023-01-20T11:29:37.737Z,1.411133
2023-01-20T11:30:46.462Z,1.401062
2023-01-20T11:31:56.739Z,1.310425
2023-01-20T11:33:07.847Z,1.320496
2023-01-20T11:34:18.248Z,1.340637
2023-01-20T11:35:29.699Z,1.38092
2023-01-20T11:36:40.699Z,1.421204
2023-01-20T11:37:52.014Z,1.481628
2023-01-20T11:39:03.384Z,1.481628
2023-01-20T11:40:14.493Z,1.441345
2023-01-20T11:41:24.490Z,1.451416
2023-01-20T11:42:36.700Z,1.592407
2023-01-20T11:43:46.521Z,1.683044
2023-01-20T11:44:57.538Z,1.703186
2023-01-20T11:46:08.081Z,1.713257
2023-01-20T11:47:18.589Z,1.854248
2023-01-20T11:48:29.324Z,1.894531
2023-01-20T11:49:39.020Z,1.995239
2023-01-20T11:50:52.127Z,2.055664
2023-01-20T11:52:01.064Z,1.954956
2023-01-20T11:53:09.832Z,1.844177
2023-01-20T11:54:21.473Z,1.713257
2023-01-20T11:55:32.272Z,1.582336
2023-01-20T11:56:43.493Z,1.582336
2023-01-20T11:57:55.211Z,1.683044
2023-01-20T11:59:06.887Z,1.87439
2023-01-20T12:00:18.062Z,1.995239
2023-01-20T12:01:29.559Z,2.247009
2023-01-20T12:02:40.731Z,2.196655
2023-01-20T12:03:52.310Z,2.287292
2023-01-20T12:05:03.737Z,2.176514
2023-01-20T12:06:14.406Z,2.12616
2023-01-20T12:07:26.014Z,2.12616
2023-01-20T12:08:37.453Z,2.166443
2023-01-20T12:09:48.275Z,2.13623
2023-01-20T12:11:00.741Z,2.13623
2023-01-20T12:12:10.997Z,2.176514
2023-01-20T12:13:20.684Z,2.287292
2023-01-20T12:14:29.350Z,2.277222
2023-01-20T12:15:38.042Z,2.388
2023-01-20T12:16:47.729Z,2.428284
2023-01-20T12:17:56.369Z,2.468567
2023-01-20T12:19:06.056Z,2.438354
2023-01-20T12:20:15.140Z,2.50885
2023-01-20T12:21:23.544Z,2.680054
2023-01-20T12:22:33.224Z,2.790833
2023-01-20T12:23:43.159Z,2.750549
2023-01-20T12:24:52.859Z,2.982178
2023-01-20T12:26:02.527Z,2.871399
2023-01-20T12:27:11.351Z,2.609558
2023-01-20T12:28:21.007Z,2.488708
2023-01-20T12:29:29.689Z,2.528992
2023-01-20T12:30:39.729Z,2.609558
2023-01-20T12:31:53.125Z,2.750549
2023-01-20T12:33:04.965Z,2.770691
2023-01-20T12:34:17.624Z,2.609558
2023-01-20T12:35:26.499Z,2.37793
2023-01-20T12:36:35.472Z,2.166443
2023-01-20T12:37:46.492Z,2.035522
2023-01-20T12:38:57.346Z,1.944885
2023-01-20T12:40:07.382Z,1.894531
2023-01-20T12:41:16.024Z,1.88446
2023-01-20T12:42:26.790Z,1.803894
2023-01-20T12:43:36.350Z,1.733398
2023-01-20T12:44:46.030Z,1.602478
2023-01-20T12:45:55.794Z,1.672974
2023-01-20T12:47:05.392Z,1.743469
2023-01-20T12:48:13.062Z,1.773682
2023-01-20T12:49:22.747Z,1.602478
2023-01-20T12:50:32.410Z,1.481628
2023-01-20T12:51:40.060Z,1.481628
2023-01-20T12:52:49.765Z,1.421204
2023-01-20T12:53:58.437Z,1.421204
2023-01-20T12:55:07.104Z,1.451416
2023-01-20T12:56:16.809Z,1.521912
2023-01-20T12:57:25.439Z,1.602478
2023-01-20T12:58:35.115Z,1.713257
2023-01-20T12:59:44.800Z,1.743469
2023-01-20T13:00:52.490Z,1.844177
2023-01-20T13:02:02.131Z,1.813965
2023-01-20T13:03:10.854Z,1.88446
2023-01-20T13:04:20.493Z,1.87439
2023-01-20T13:05:30.205Z,1.88446
2023-01-20T13:06:38.855Z,1.894531
2023-01-20T13:07:48.528Z,1.763611
2023-01-20T13:08:58.234Z,1.63269
2023-01-20T13:10:07.898Z,1.531982
2023-01-20T13:11:17.663Z,1.441345
2023-01-20T13:12:26.340Z,1.350708
2023-01-20T13:13:45.124Z,1.320496
2023-01-20T13:14:46.641Z,1.239929
2023-01-20T13:15:55.405Z,1.189575
2023-01-20T13:17:05.054Z,1.169434
2023-01-20T13:18:14.672Z,1.169434
2023-01-20T13:19:23.369Z,1.169434
2023-01-20T13:20:33.035Z,1.139221